createdAt,value
2023-04-03T00:00:42.397Z,5.07
2023-04-03T00:03:09.561Z,5.18
2023-04-03T00:05:36.732Z,4.68
2023-04-03T00:08:03.875Z,3.70
2023-04-03T00:10:31.351Z,3.50
2023-04-03T00:12:58.488Z,4.00
2023-04-03T00:15:25.658Z,4.75
2023-04-03T00:17:52.800Z,4.15
2023-04-03T00:20:20.023Z,3.90
2023-04-03T00:22:47.149Z,5.85
2023-04-03T00:25:14.274Z,4.90
2023-04-03T00:27:41.547Z,4.22
2023-04-03T00:30:12.049Z,3.78
2023-04-03T00:32:39.261Z,4.60
2023-04-03T00:35:06.809Z,4.90
2023-04-03T00:37:34.085Z,7.30
2023-04-03T00:40:01.408Z,7.93
2023-04-03T00:42:28.756Z,5.97
2023-04-03T00:44:58.897Z,5.72
2023-04-03T00:47:26.379Z,6.38
2023-04-03T00:49:54.701Z,5.70
2023-04-03T00:52:24.874Z,6.10
2023-04-03T00:54:55.630Z,5.72
2023-04-03T00:57:23.587Z,4.97
2023-04-03T00:59:54.686Z,6.05
2023-04-03T01:02:22.128Z,6.00
2023-04-03T01:04:49.327Z,6.13
2023-04-03T01:07:21.091Z,6.38
2023-04-03T01:09:51.329Z,7.63
2023-04-03T01:12:36.705Z,8.45
2023-04-03T01:15:15.177Z,7.47
2023-04-03T01:17:59.594Z,6.55
2023-04-03T01:20:33.429Z,7.55
2023-04-03T01:23:13.173Z,8.40
2023-04-03T01:25:51.634Z,7.63
2023-04-03T01:28:24.100Z,7.55
2023-04-03T01:31:22.788Z,8.32
2023-04-03T01:33:50.903Z,4.88
2023-04-03T01:36:22.377Z,5.80
2023-04-03T01:38:50.069Z,5.05
2023-04-03T01:41:17.478Z,5.38
2023-04-03T01:43:46.221Z,4.95
2023-04-03T01:46:13.689Z,6.38
2023-04-03T01:48:41.320Z,5.45
2023-04-03T01:51:08.953Z,5.85
2023-04-03T01:53:36.189Z,5.18
2023-04-03T01:56:03.364Z,5.47
2023-04-03T01:58:32.674Z,9.27
2023-04-03T02:01:00.441Z,8.88
2023-04-03T02:03:27.777Z,10.90
2023-04-03T02:05:54.917Z,11.45
2023-04-03T02:08:22.381Z,11.32
2023-04-03T02:10:50.775Z,14.10
2023-04-03T02:13:19.096Z,20.77
2023-04-03T02:15:46.690Z,21.10
2023-04-03T02:18:17.546Z,20.98
2023-04-03T02:20:44.745Z,23.77
2023-04-03T02:23:12.158Z,22.25
2023-04-03T02:25:39.294Z,22.38
2023-04-03T02:28:07.020Z,19.05
2023-04-03T02:30:34.261Z,22.40
2023-04-03T02:33:01.545Z,26.10
2023-04-03T02:35:29.426Z,23.02
2023-04-03T02:37:58.944Z,20.25
2023-04-03T02:40:26.034Z,20.83
2023-04-03T02:42:53.204Z,21.05
2023-04-03T02:45:21.342Z,19.75
2023-04-03T02:47:48.444Z,21.50
2023-04-03T02:50:15.709Z,25.30
2023-04-03T02:52:42.767Z,27.83
2023-04-03T02:55:14.556Z,26.17
2023-04-03T02:57:41.724Z,23.38
2023-04-03T03:00:10.078Z,21.13
2023-04-03T03:02:37.348Z,21.13
2023-04-03T03:05:04.799Z,24.20
2023-04-03T03:07:31.990Z,15.65
2023-04-03T03:09:59.189Z,19.42
2023-04-03T03:12:27.544Z,13.15
2023-04-03T03:14:54.738Z,12.98
2023-04-03T03:17:22.062Z,13.65
2023-04-03T03:19:49.122Z,21.05
2023-04-03T03:22:18.555Z,16.33
2023-04-03T03:24:45.898Z,11.02
2023-04-03T03:27:13.322Z,11.18
2023-04-03T03:29:40.691Z,14.50
2023-04-03T03:32:08.141Z,13.85
2023-04-03T03:34:35.279Z,15.02
2023-04-03T03:37:02.352Z,13.32
2023-04-03T03:39:29.880Z,12.48
2023-04-03T03:41:57.676Z,13.05
2023-04-03T03:44:24.918Z,12.70
2023-04-03T03:46:53.680Z,15.80
2023-04-03T03:49:21.031Z,15.15
2023-04-03T03:51:48.917Z,18.58
2023-04-03T03:54:16.685Z,19.15
2023-04-03T03:56:44.750Z,19.70
2023-04-03T03:59:14.021Z,21.70
2023-04-03T04:01:42.385Z,22.05
2023-04-03T04:04:09.785Z,22.52
2023-04-03T04:06:37.011Z,18.35
2023-04-03T04:09:06.908Z,14.18
2023-04-03T04:11:34.511Z,15.95
2023-04-03T04:14:02.220Z,14.60
2023-04-03T04:16:31.005Z,13.88
2023-04-03T04:19:03.305Z,10.98
2023-04-03T04:21:31.871Z,10.98
2023-04-03T04:23:59.442Z,10.35
2023-04-03T04:26:27.157Z,7.40
2023-04-03T04:28:54.396Z,7.38
2023-04-03T04:31:21.992Z,7.20
2023-04-03T04:33:49.799Z,7.38
2023-04-03T04:36:17.399Z,7.40
2023-04-03T04:38:47.133Z,6.88
2023-04-03T04:41:14.887Z,6.80
2023-04-03T04:43:42.207Z,6.15
2023-04-03T04:46:13.360Z,3.65
2023-04-03T04:48:46.301Z,3.78
2023-04-03T04:51:14.344Z,3.70
2023-04-03T04:53:42.879Z,3.50
2023-04-03T04:56:13.151Z,4.63
2023-04-03T04:58:40.830Z,3.80
2023-04-03T05:01:11.382Z,4.05
2023-04-03T05:03:55.564Z,5.53
2023-04-03T05:06:24.281Z,5.57
2023-04-03T05:08:51.924Z,5.75
2023-04-03T05:11:20.058Z,2.40
2023-04-03T05:13:50.977Z,3.92
2023-04-03T05:16:18.304Z,2.88
2023-04-03T05:18:45.457Z,2.05
2023-04-03T05:21:19.471Z,1.58
2023-04-03T05:23:48.464Z,1.70
2023-04-03T05:26:15.790Z,1.27
2023-04-03T05:28:44.625Z,1.40
2023-04-03T05:31:12.509Z,1.73
2023-04-03T05:33:39.698Z,1.42
2023-04-03T05:36:10.442Z,1.60
2023-04-03T05:38:43.696Z,1.50
2023-04-03T05:41:11.517Z,1.23
2023-04-03T05:43:40.083Z,1.48
2023-04-03T05:46:21.475Z,1.75
2023-04-03T05:48:52.851Z,1.50
2023-04-03T05:51:32.145Z,1.50
2023-04-03T05:54:09.715Z,1.35
2023-04-03T05:56:36.896Z,1.30
2023-04-03T05:59:04.727Z,1.42
2023-04-03T06:01:32.066Z,1.42
2023-04-03T06:04:00.171Z,1.33
2023-04-03T06:06:43.497Z,1.50
2023-04-03T06:09:10.565Z,1.52
2023-04-03T06:11:38.020Z,1.80
2023-04-03T06:14:05.330Z,1.40
2023-04-03T06:16:32.424Z,1.48
2023-04-03T06:19:00.229Z,1.38
2023-04-03T06:21:27.673Z,1.30
2023-04-03T06:23:54.747Z,1.23
2023-04-03T06:26:22.155Z,1.60
2023-04-03T06:28:49.403Z,1.52
2023-04-03T06:31:16.839Z,1.50
2023-04-03T06:33:43.868Z,1.40
2023-04-03T06:36:13.300Z,1.40
2023-04-03T06:38:40.694Z,2.42
2023-04-03T06:41:08.272Z,1.35
2023-04-03T06:43:35.321Z,1.65
2023-04-03T06:46:02.576Z,1.55
2023-04-03T06:48:30.383Z,1.40
2023-04-03T06:50:57.516Z,1.65
2023-04-03T06:53:24.957Z,1.48
2023-04-03T06:55:51.977Z,1.33
2023-04-03T06:58:21.039Z,1.27
2023-04-03T07:00:49.078Z,1.10
2023-04-03T07:03:17.434Z,1.10
2023-04-03T07:05:45.964Z,0.80
2023-04-03T07:08:13.017Z,1.00
2023-04-03T07:10:40.163Z,0.80
2023-04-03T07:13:07.350Z,1.25
2023-04-03T07:15:34.926Z,1.55
2023-04-03T07:18:02.033Z,1.10
2023-04-03T07:20:31.382Z,1.25
2023-04-03T07:22:58.667Z,1.00
2023-04-03T07:25:25.812Z,0.85
2023-04-03T07:27:52.941Z,0.93
2023-04-03T07:30:20.085Z,1.15
2023-04-03T07:32:47.859Z,1.20
2023-04-03T07:35:15.050Z,1.02
2023-04-03T07:37:42.625Z,0.90
2023-04-03T07:40:11.158Z,1.00
2023-04-03T07:42:38.468Z,0.80
2023-04-03T07:45:06.080Z,1.35
2023-04-03T07:47:33.195Z,1.50
2023-04-03T07:50:00.325Z,3.17
2023-04-03T07:52:27.372Z,1.77
2023-04-03T07:54:54.487Z,1.85
2023-04-03T07:57:21.625Z,1.73
2023-04-03T07:59:48.709Z,1.63
2023-04-03T08:02:15.861Z,1.50
2023-04-03T08:04:43.095Z,1.88
2023-04-03T08:07:10.415Z,1.50
2023-04-03T08:09:37.484Z,1.70
2023-04-03T08:12:04.748Z,1.52
2023-04-03T08:14:35.547Z,1.40
2023-04-03T08:17:04.052Z,1.75
2023-04-03T08:19:31.339Z,1.30
2023-04-03T08:21:59.753Z,1.92
2023-04-03T08:24:26.854Z,1.75
2023-04-03T08:26:54.015Z,1.58
2023-04-03T08:29:22.329Z,1.80
2023-04-03T08:31:50.895Z,1.63
2023-04-03T08:34:19.116Z,1.77
2023-04-03T08:36:46.365Z,2.00
2023-04-03T08:39:13.559Z,1.73
2023-04-03T08:41:43.647Z,1.48
2023-04-03T08:44:23.678Z,2.33
2023-04-03T08:47:18.768Z,2.78
2023-04-03T08:49:56.977Z,3.00
2023-04-03T08:52:43.222Z,3.10
2023-04-03T08:55:32.824Z,2.78
2023-04-03T08:58:07.445Z,3.38
2023-04-03T09:01:17.972Z,2.75
2023-04-03T09:03:45.186Z,2.80
2023-04-03T09:06:20.036Z,2.85
2023-04-03T09:08:47.020Z,3.00
2023-04-03T09:11:29.486Z,2.92
2023-04-03T09:14:35.416Z,2.80
2023-04-03T09:17:17.089Z,3.42
2023-04-03T09:20:07.640Z,2.83
2023-04-03T09:22:45.784Z,2.60
2023-04-03T09:25:23.311Z,2.85
2023-04-03T09:27:52.540Z,3.70
2023-04-03T09:30:25.539Z,3.33
2023-04-03T09:32:55.053Z,3.45
2023-04-03T09:35:32.779Z,3.45
2023-04-03T09:38:14.321Z,2.58
2023-04-03T09:40:42.566Z,2.80
2023-04-03T09:43:19.033Z,2.90
2023-04-03T09:45:47.611Z,2.58
2023-04-03T09:48:16.364Z,3.67
2023-04-03T09:50:56.546Z,3.78
2023-04-03T09:53:43.839Z,3.72
2023-04-03T09:56:17.063Z,4.60
2023-04-03T09:58:53.410Z,4.68
2023-04-03T10:01:38.366Z,4.80
2023-04-03T10:04:17.991Z,5.07
2023-04-03T10:06:52.132Z,4.55
2023-04-03T10:09:31.320Z,3.95
2023-04-03T10:12:14.135Z,4.63
2023-04-03T10:14:54.556Z,5.78
2023-04-03T10:17:42.190Z,4.82
2023-04-03T10:20:15.963Z,4.15
2023-04-03T10:23:05.769Z,4.00
2023-04-03T10:25:45.128Z,4.57
2023-04-03T10:28:39.336Z,6.05
2023-04-03T10:31:17.702Z,4.35
2023-04-03T10:34:19.410Z,5.15
2023-04-03T10:36:49.029Z,4.68
2023-04-03T10:39:27.701Z,5.25
2023-04-03T10:42:17.537Z,5.03
2023-04-03T10:45:00.943Z,4.72
2023-04-03T10:47:41.906Z,4.07
2023-04-03T10:50:30.761Z,4.88
2023-04-03T10:53:24.990Z,3.58
2023-04-03T10:56:08.014Z,3.30
2023-04-03T10:58:44.271Z,3.22
2023-04-03T11:01:17.971Z,3.83
2023-04-03T11:03:48.627Z,3.80
2023-04-03T11:06:19.151Z,2.90
2023-04-03T11:08:46.601Z,2.63
2023-04-03T11:11:20.371Z,3.08
2023-04-03T11:13:57.979Z,3.30
2023-04-03T11:16:28.394Z,2.78
2023-04-03T11:19:04.576Z,3.45
2023-04-03T11:21:42.513Z,3.17
2023-04-03T11:24:21.952Z,2.55
2023-04-03T11:26:52.194Z,2.90
2023-04-03T11:29:34.313Z,2.58
2023-04-03T11:32:20.095Z,2.42
2023-04-03T11:34:53.091Z,3.17
2023-04-03T11:37:35.186Z,3.03
2023-04-03T11:40:05.195Z,2.47
2023-04-03T11:42:39.465Z,2.47
2023-04-03T11:45:25.734Z,2.70
2023-04-03T11:47:54.171Z,3.13
2023-04-03T11:50:36.320Z,2.78
2023-04-03T11:53:09.588Z,2.58
2023-04-03T11:55:43.449Z,3.00
2023-04-03T11:58:14.464Z,2.28
2023-04-03T12:01:06.004Z,3.60
2023-04-03T12:03:54.582Z,2.95
2023-04-03T12:06:22.140Z,2.40
2023-04-03T12:08:55.060Z,2.83
2023-04-03T12:11:30.018Z,4.07
2023-04-03T12:13:57.043Z,3.20
2023-04-03T12:16:29.924Z,3.17
2023-04-03T12:19:03.789Z,2.97
2023-04-03T12:21:30.894Z,3.17
2023-04-03T12:24:09.823Z,3.67
2023-04-03T12:26:48.659Z,4.63
2023-04-03T12:29:25.848Z,3.83
2023-04-03T12:32:05.360Z,3.83
2023-04-03T12:34:44.638Z,3.75
2023-04-03T12:37:48.886Z,4.07
2023-04-03T12:40:41.612Z,4.25
2023-04-03T12:43:27.393Z,6.50
2023-04-03T12:46:13.158Z,5.28
2023-04-03T12:48:46.564Z,5.53
2023-04-03T12:51:21.142Z,3.63
2023-04-03T12:53:50.386Z,3.97
2023-04-03T12:56:32.213Z,4.78
2023-04-03T12:59:21.323Z,5.07
2023-04-03T13:01:59.913Z,3.88
2023-04-03T13:04:29.835Z,3.70
2023-04-03T13:06:57.383Z,3.63
2023-04-03T13:09:33.681Z,4.05
2023-04-03T13:12:04.715Z,3.67
2023-04-03T13:14:32.192Z,3.38
2023-04-03T13:17:15.041Z,3.67
2023-04-03T13:19:44.372Z,3.97
2023-04-03T13:22:33.336Z,4.78
2023-04-03T13:25:06.566Z,5.03
2023-04-03T13:27:34.354Z,5.25
2023-04-03T13:30:03.154Z,6.45
2023-04-03T13:32:33.108Z,5.72
2023-04-03T13:35:15.759Z,5.80
2023-04-03T13:37:57.465Z,5.18
2023-04-03T13:40:28.032Z,4.65
2023-04-03T13:43:18.300Z,3.10
2023-04-03T13:46:23.222Z,3.38
2023-04-03T13:48:53.492Z,3.10
2023-04-03T13:51:27.367Z,3.47
2023-04-03T13:54:01.022Z,2.50
2023-04-03T13:56:38.738Z,2.65
2023-04-03T13:59:20.792Z,3.40
2023-04-03T14:02:10.757Z,3.42
2023-04-03T14:04:49.584Z,3.00
2023-04-03T14:07:18.116Z,4.22
2023-04-03T14:09:45.564Z,4.45
2023-04-03T14:12:34.515Z,3.10
2023-04-03T14:15:04.456Z,4.40
2023-04-03T14:17:32.363Z,3.60
2023-04-03T14:20:02.137Z,3.67
2023-04-03T14:22:32.645Z,4.03
2023-04-03T14:25:00.487Z,3.80
2023-04-03T14:27:40.592Z,3.80
2023-04-03T14:30:14.994Z,3.25
2023-04-03T14:32:42.445Z,4.40
2023-04-03T14:35:09.724Z,4.25
2023-04-03T14:37:36.940Z,3.72
2023-04-03T14:40:06.508Z,3.88
2023-04-03T14:42:36.904Z,3.50
2023-04-03T14:45:07.865Z,4.22
2023-04-03T14:47:42.816Z,3.42
2023-04-03T14:50:16.875Z,3.70
2023-04-03T14:52:45.088Z,3.33
2023-04-03T14:55:16.853Z,3.65
2023-04-03T14:57:44.305Z,3.78
2023-04-03T15:00:20.522Z,3.53
2023-04-03T15:02:49.171Z,3.10
2023-04-03T15:05:16.765Z,4.10
2023-04-03T15:07:50.004Z,3.13
2023-04-03T15:10:23.319Z,3.22
2023-04-03T15:12:51.970Z,3.55
2023-04-03T15:15:21.664Z,3.08
2023-04-03T15:17:54.907Z,3.17
2023-04-03T15:20:25.501Z,3.10
2023-04-03T15:22:52.594Z,3.30
2023-04-03T15:25:20.087Z,2.70
2023-04-03T15:27:47.181Z,3.70
2023-04-03T15:30:19.383Z,2.80
2023-04-03T15:32:46.645Z,3.28
2023-04-03T15:35:13.929Z,4.05
2023-04-03T15:37:41.312Z,3.53
2023-04-03T15:40:09.157Z,3.40
2023-04-03T15:42:36.280Z,3.58
2023-04-03T15:45:03.636Z,3.63
2023-04-03T15:47:30.910Z,4.10
2023-04-03T15:49:58.227Z,4.65
2023-04-03T15:52:25.381Z,6.03
2023-04-03T15:54:52.499Z,5.10
2023-04-03T15:57:19.735Z,3.30
2023-04-03T15:59:46.835Z,3.25
2023-04-03T16:02:14.538Z,3.53
2023-04-03T16:04:42.271Z,3.28
2023-04-03T16:07:09.525Z,3.45
2023-04-03T16:09:37.684Z,4.00
2023-04-03T16:12:05.151Z,4.15
2023-04-03T16:14:32.647Z,4.25
2023-04-03T16:17:01.328Z,4.53
2023-04-03T16:19:28.655Z,4.90
2023-04-03T16:21:56.973Z,4.57
2023-04-03T16:24:24.410Z,5.00
2023-04-03T16:26:51.610Z,4.68
2023-04-03T16:29:18.678Z,4.03
2023-04-03T16:31:46.083Z,5.75
2023-04-03T16:34:13.613Z,4.97
2023-04-03T16:36:40.891Z,4.50
2023-04-03T16:39:10.674Z,5.07
2023-04-03T16:41:37.890Z,3.20
2023-04-03T16:44:05.120Z,3.08
2023-04-03T16:46:32.304Z,4.07
2023-04-03T16:48:59.521Z,5.05
2023-04-03T16:51:26.676Z,5.13
2023-04-03T16:53:53.776Z,5.63
2023-04-03T16:56:21.365Z,5.43
2023-04-03T16:58:48.704Z,5.70
2023-04-03T17:01:20.158Z,6.47
2023-04-03T17:03:47.989Z,6.50
2023-04-03T17:06:21.226Z,7.03
2023-04-03T17:08:51.141Z,6.93
2023-04-03T17:11:28.302Z,5.88
2023-04-03T17:13:55.440Z,6.43
2023-04-03T17:16:23.852Z,5.63
2023-04-03T17:18:51.657Z,5.50
2023-04-03T17:21:19.029Z,5.40
2023-04-03T17:23:50.738Z,4.53
2023-04-03T17:26:18.385Z,4.80
2023-04-03T17:28:46.359Z,5.00
2023-04-03T17:31:14.524Z,5.10
2023-04-03T17:33:41.689Z,4.63
2023-04-03T17:36:09.025Z,3.85
2023-04-03T17:38:36.457Z,4.38
2023-04-03T17:41:06.913Z,4.75
2023-04-03T17:43:35.154Z,4.60
2023-04-03T17:46:04.866Z,4.25
2023-04-03T17:48:34.316Z,4.72
2023-04-03T17:51:06.350Z,3.92
2023-04-03T17:53:33.533Z,4.80
2023-04-03T17:56:10.182Z,4.60
2023-04-03T17:58:37.346Z,4.80
2023-04-03T18:01:16.529Z,5.22
2023-04-03T18:03:44.389Z,5.07
2023-04-03T18:06:17.332Z,4.40
2023-04-03T18:08:51.515Z,4.95
2023-04-03T18:11:20.154Z,4.88
2023-04-03T18:13:47.488Z,4.03
2023-04-03T18:16:15.597Z,4.25
2023-04-03T18:18:42.760Z,5.63
2023-04-03T18:21:12.380Z,5.40
2023-04-03T18:23:43.587Z,5.93
2023-04-03T18:26:16.480Z,5.22
2023-04-03T18:28:51.200Z,6.18
2023-04-03T18:31:19.249Z,5.65
2023-04-03T18:33:46.591Z,5.53
2023-04-03T18:36:13.807Z,5.63
2023-04-03T18:38:40.942Z,5.22
2023-04-03T18:41:09.684Z,5.13
2023-04-03T18:43:36.989Z,4.75
2023-04-03T18:46:05.905Z,4.57
2023-04-03T18:48:35.490Z,4.53
2023-04-03T18:51:02.941Z,6.18
2023-04-03T18:53:30.066Z,4.45
2023-04-03T18:55:57.189Z,5.07
2023-04-03T18:58:24.561Z,4.82
2023-04-03T19:00:51.726Z,5.18
2023-04-03T19:03:19.052Z,5.00
2023-04-03T19:05:46.521Z,4.53
2023-04-03T19:08:14.325Z,4.22
2023-04-03T19:10:41.481Z,3.80
2023-04-03T19:13:08.685Z,4.22
2023-04-03T19:15:36.039Z,4.40
2023-04-03T19:18:03.389Z,4.30
2023-04-03T19:20:30.656Z,4.72
2023-04-03T19:22:57.928Z,4.65
2023-04-03T19:25:25.606Z,4.13
2023-04-03T19:27:52.813Z,4.30
2023-04-03T19:30:20.032Z,2.97
2023-04-03T19:32:47.349Z,3.92
2023-04-03T19:35:14.492Z,3.67
2023-04-03T19:37:42.705Z,4.28
2023-04-03T19:40:10.581Z,4.70
2023-04-03T19:42:40.405Z,5.00
2023-04-03T19:45:08.832Z,4.35
2023-04-03T19:47:36.304Z,4.00
2023-04-03T19:50:04.039Z,4.30
2023-04-03T19:52:31.110Z,4.45
2023-04-03T19:54:58.267Z,4.35
2023-04-03T19:57:25.429Z,4.57
2023-04-03T19:59:52.585Z,4.30
2023-04-03T20:02:21.514Z,3.42
2023-04-03T20:04:48.760Z,4.57
2023-04-03T20:07:16.217Z,4.32
2023-04-03T20:09:43.347Z,3.28
2023-04-03T20:12:10.904Z,4.10
2023-04-03T20:14:39.685Z,2.92
2023-04-03T20:17:06.931Z,3.53
2023-04-03T20:19:33.986Z,3.42
2023-04-03T20:22:01.860Z,4.20
2023-04-03T20:24:29.551Z,3.92
2023-04-03T20:26:57.985Z,3.40
2023-04-03T20:29:25.963Z,4.15
2023-04-03T20:31:53.930Z,4.53
2023-04-03T20:34:21.858Z,4.28
2023-04-03T20:36:50.147Z,4.53
2023-04-03T20:39:19.228Z,4.75
2023-04-03T20:41:46.536Z,4.22
2023-04-03T20:44:13.605Z,3.78
2023-04-03T20:46:52.219Z,4.10
2023-04-03T20:49:21.183Z,4.47
2023-04-03T20:51:48.993Z,4.75
2023-04-03T20:54:16.150Z,4.72
2023-04-03T20:56:44.393Z,4.05
2023-04-03T20:59:12.855Z,4.18
2023-04-03T21:01:41.020Z,4.43
2023-04-03T21:04:32.365Z,4.95
2023-04-03T21:07:39.044Z,4.40
2023-04-03T21:10:43.412Z,5.20
2023-04-03T21:13:47.745Z,5.80
2023-04-03T21:16:14.601Z,5.82
2023-04-03T21:18:55.575Z,6.60
2023-04-03T21:21:26.198Z,7.43
2023-04-03T21:23:54.941Z,7.10
2023-04-03T21:26:23.483Z,8.27
2023-04-03T21:28:52.017Z,6.35
2023-04-03T21:31:21.353Z,8.20
2023-04-03T21:33:48.439Z,7.93
2023-04-03T21:36:15.701Z,8.38
2023-04-03T21:38:45.426Z,7.95
2023-04-03T21:41:12.526Z,9.00
2023-04-03T21:43:39.552Z,7.97
2023-04-03T21:46:06.721Z,8.90
2023-04-03T21:48:34.530Z,9.13
2023-04-03T21:51:08.412Z,9.57
2023-04-03T21:53:35.635Z,5.93
2023-04-03T21:56:02.959Z,9.45
2023-04-03T21:58:34.021Z,6.80
2023-04-03T22:01:15.033Z,9.85
2023-04-03T22:03:43.908Z,8.18
2023-04-03T22:06:12.657Z,8.30
2023-04-03T22:08:40.102Z,9.23
2023-04-03T22:11:10.710Z,8.60
2023-04-03T22:13:37.939Z,7.82
2023-04-03T22:16:06.180Z,8.13
2023-04-03T22:18:34.109Z,8.93
2023-04-03T22:21:01.341Z,7.20
2023-04-03T22:23:28.499Z,6.72
2023-04-03T22:26:07.560Z,8.77
2023-04-03T22:28:37.544Z,6.47
2023-04-03T22:31:07.873Z,5.82
2023-04-03T22:33:38.306Z,8.05
2023-04-03T22:36:07.305Z,7.80
2023-04-03T22:38:35.182Z,6.70
2023-04-03T22:41:04.492Z,7.50
2023-04-03T22:43:33.875Z,6.38
2023-04-03T22:46:03.162Z,7.25
2023-04-03T22:48:31.209Z,6.40
2023-04-03T22:51:00.126Z,6.07
2023-04-03T22:53:30.317Z,6.28
2023-04-03T22:56:02.183Z,5.53
2023-04-03T22:58:29.958Z,6.90
2023-04-03T23:01:08.214Z,5.97
2023-04-03T23:03:36.461Z,6.53
2023-04-03T23:06:04.625Z,6.63
2023-04-03T23:08:32.735Z,6.97
2023-04-03T23:11:00.204Z,6.22
2023-04-03T23:13:27.895Z,5.35
2023-04-03T23:16:00.105Z,6.05
2023-04-03T23:18:31.444Z,4.95
2023-04-03T23:21:04.033Z,6.32
2023-04-03T23:23:32.051Z,5.20
2023-04-03T23:26:03.273Z,6.20
2023-04-03T23:28:30.653Z,7.20
2023-04-03T23:31:02.406Z,5.53
2023-04-03T23:33:31.378Z,5.82
2023-04-03T23:35:59.339Z,5.05
2023-04-03T23:38:26.776Z,5.75
2023-04-03T23:40:53.900Z,5.28
2023-04-03T23:43:21.232Z,4.65
2023-04-03T23:45:48.528Z,4.47
2023-04-03T23:48:15.665Z,5.07
2023-04-03T23:50:43.701Z,4.38
2023-04-03T23:53:13.053Z,4.40
2023-04-03T23:55:40.290Z,2.40
2023-04-03T23:58:07.867Z,3.35
